Aérodrome :
LOGIN :

S'inscrire | Disclaimer

   EN    FR    IT 

 










Légende :    VFR   VFR Marginal   IFR   IFR Intensif   IFR Très Intensif
Visi : 
Plafond : 
>= 8 km
>= 3000ft
5 à 8 km
1000 à 3000 ft
1500m à 5 km
500 à 1000 ft
800 à 1500m
200 à 500 ft
< 800m
< 200 ft
Symboles :   Orages  Brouillard  Fortes neiges  Fortes précipitations  Vent > 20 kt
SIGMETs :   Divers  Orages  Givrage  Turbulence  Onde Orograph.  Cendres Volcan.






- Altitude de l'aérodrome : 17 ft
- Code IATA : CPH


EKCH - København - Kastrup (Copenhagen)

DERNIER METAR :
  • 200150Z 21007KT 9999 BKN008 06/05 Q1019 TEMPO BKN012

METARs EXPIRÉS :
  • 200120Z 22007KT 9999 FEW009 06/05 Q1019 TEMPO BKN012
  • 200048Z 21006KT 9999 BKN009 06/05 Q1019 TEMPO BKN012
  • 200020Z 21009KT 9999 BKN011 07/06 Q1018 TEMPO BKN015
  • 192350Z 21009KT 9999 BKN011 07/06 Q1018 TEMPO BKN015
  • 192320Z 22014KT 9999 OVC013 08/06 Q1018 TEMPO BKN015

TAF AMD TAF EKCH
Valide du 20 à 01h jusqu'au 21 à 00h UTC


200123Z 2001/2024 21012KT 9999 BKN015
TEMPO 2001/2007 BKN009
BECMG 2004/2007 VRB02KT
BECMG 2007/2010 05010KT
BECMG 2012/2014 3000 -RADZ BR BKN006
TEMPO 2014/2024 8000 RADZ SCT006 BKN012
BECMG 2015/2017 12015KT



MET'MAP, la Météo Aéronautique d'un coup d'oeil ! - Copyright ORBIFLY Décembre 2007 - Disclaimer

ORBIFLY MET'MAP TEAM :

Programmation & Développement : Alexandra Zaïnal
Conception & Développement : Baudouin d'Aumeries
Co-Programmation & Développement : Marc-Olivier Méhu
Soutien technique & logistique : Manuel Goepfert

Contact : metmap@orbifly.com




SOURCES & CREDITS :

   NOAA